< < Back
Terminal Aerodrome Forecast


Current Version              Previous Versions:   1  2  3  4  5  6  7  8  9  

Terminal Aerodrome Forecast

531
FTUS42 KGSP 231127
TAFGSP
TAF
KGSP 231127Z 2312/2412 04008KT P6SM -RA SCT006 BKN010 OVC015
     FM231700 05010KT 2SM RA BR OVC010
     FM231800 05011KT 2SM SHRA BR OVC006 WS020/11035KT
     FM232300 09008KT 1 1/2SM +SHRA BR VCTS OVC004CB
     FM240200 19011KT 1 1/2SM SHRA BR OVC004
     FM240600 21009KT 5SM BR BKN007 OVC010=



Latest METAR

382
SAUS70 KWBC 232000 RRF
MTRGSP
METAR KGSP 231953Z 04011KT 1SM +RA BR BKN003 OVC010 08/07 A2989 RMK AO2
SLP121 P0014 T00780072


USA.gov is the U.S. government's official web portal to all federal, state and local government web resources and services.